Nearby METAR Reports

 

KAGC - Pittsburgh/Alleg, Pennsylvania, USA
Distance from station: N 14mi, 23km
Updated: Fri, Jul-03-2020 4:53pm EDT
Mostly cloudy
Mostly cloudy
 Wind from varies
Wind: varies 6 mph , 9 km/h
Temperature: 90°F , 32°C
Dew Point: 61°F , 16°C
Humidity: 38%
Barometer: 29.95 inHg , 1014.2 hPa
Clouds: Mostly cloudy
Visibility: 10 miles , 16 km
Cloud details: Mostly cloudy 7000 ft
2020/07/03 20:53 KAGC 032053Z VRB05KT 10SM BKN070 32/16 A2995 RMK AO2 SLP137 T03170161 56015
KAFJ - Washington, Pennsylvania, USA
Distance from station: W 17mi, 28km
Updated: Fri, Jul-03-2020 4:56pm EDT
Partly cloudy
Partly cloudy
 Wind from W
Wind: W 14 mph , 22 km/h, Gust: 17 mph , 28 km/h
Temperature: 90°F , 32°C
Heat Index: 92°F , 33°C
Dew Point: 64°F , 18°C
Humidity: 43%
Barometer: 30.00 inHg , 1015.9 hPa
Clouds: Partly cloudy
Visibility: 9 miles , 14 km
Cloud details: Partly cloudy 7000 ft
2020/07/03 20:56 KAFJ 032056Z AUTO 27012G15KT 9SM SCT070 32/18 A3000 RMK AO2 SLP151 T03170178 56014
 
KLBE - Latrobe, Pennsylvania, USA
Distance from station: ENE 30mi, 48km
Updated: Fri, Jul-03-2020 4:50pm EDT
Partly cloudy
Partly cloudy
 Wind from N
Wind: N 12 mph , 19 km/h
Temperature: 91°F , 33°C
Dew Point: 57°F , 14°C
Humidity: 32%
Barometer: 29.95 inHg , 1014.2 hPa
Clouds: Partly cloudy
Visibility: 10 miles , 16 km
Cloud details: Partly cloudy 7000 ft
2020/07/03 20:50 KLBE 032050Z 36010KT 10SM SCT070 33/14 A2995
KPIT - Pittsburgh, Pennsylvania, USA
Distance from station: NW 30mi, 48km
Updated: Fri, Jul-03-2020 4:51pm EDT
Mostly cloudy
Mostly cloudy
 Wind from NW
Wind: NW 13 mph , 20 km/h
Temperature: 90°F , 32°C
Dew Point: 59°F , 15°C
Humidity: 36%
Barometer: 29.97 inHg , 1014.9 hPa
Clouds: Mostly cloudy
Visibility: 10 miles , 16 km
Cloud details: Few Clouds 6500 ft
Mostly cloudy 25000 ft
2020/07/03 20:51 KPIT 032051Z 32011KT 10SM FEW065 BKN250 32/15 A2997 RMK AO2 SLP144 T03170150 57013
 
KMGW - Morgantown, West Virginia, USA
Distance from station: S 34mi, 55km
Updated: Fri, Jul-03-2020 4:53pm EDT
Clear
Clear
 Wind from NW
Wind: NW 8 mph , 13 km/h
Temperature: 90°F , 32°C
Dew Point: 59°F , 15°C
Humidity: 36%
Barometer: 29.99 inHg , 1015.6 hPa
Clouds: Clear
Visibility: 10 miles , 16 km
2020/07/03 20:53 KMGW 032053Z 32007KT 10SM CLR 32/15 A2999 RMK AO2 SLP143 T03170150 58012
KHLG - Wheeling, West Virginia, USA
Distance from station: W 37mi, 60km
Updated: Fri, Jul-03-2020 4:53pm EDT
Few Clouds
Few Clouds
 Wind from varies
Wind: varies 6 mph , 9 km/h
Temperature: 88°F , 31°C
Heat Index: 89°F , 32°C
Dew Point: 63°F , 17°C
Humidity: 43%
Barometer: 29.99 inHg , 1015.6 hPa
Clouds: Few Clouds
Visibility: 10 miles , 16 km
Cloud details: Few Clouds 6500 ft
2020/07/03 20:53 KHLG 032053Z VRB05KT 10SM FEW065 31/17 A2999 RMK AO2 SLP146 T03110172 56012
 
KBTP - Butler Co., Pennsylvania, USA
Distance from station: N 43mi, 69km
Updated: Fri, Jul-03-2020 4:56pm EDT
Clear
Clear
 Wind from W
Wind: W 9 mph , 15 km/h
Barometer: 29.97 inHg , 1014.9 hPa
Clouds: Clear
Visibility: 10 miles , 16 km
2020/07/03 20:56 KBTP 032056Z AUTO 27008KT 10SM CLR A2997 RMK AO2 SLPNO 6//// 57013 FZRANO PNO $
KBVI - Beaver Falls Arp, Pennsylvania, USA
Distance from station: NNW 49mi, 79km
Updated: Fri, Jul-03-2020 5:15pm EDT
Partly cloudy
Partly cloudy
 Wind from WNW
Wind: WNW 8 mph , 13 km/h
Temperature: 90°F , 32°C
Dew Point: 61°F , 16°C
Humidity: 38%
Barometer: 29.97 inHg , 1014.9 hPa
Clouds: Partly cloudy
Visibility: 10 miles , 16 km
Cloud details: Partly cloudy 6500 ft
2020/07/03 21:15 KBVI 032115Z AUTO 30007KT 10SM SCT065 32/16 A2997 RMK AO2 T03150164
 
K2G4 - Garrett Co, Maryland, USA
Distance from station: SE 51mi, 82km
Updated: Fri, Jul-03-2020 5:15pm EDT
Partly cloudy
Partly cloudy
 Wind from WNW
Wind: WNW 7 mph , 11 km/h
Temperature: 77°F , 25°C
Dew Point: 59°F , 15°C
Humidity: 54%
Barometer: 30.07 inHg , 1018.3 hPa
Clouds: Partly cloudy
Visibility: 10 miles , 16 km
Cloud details: Partly cloudy 4800 ft
2020/07/03 21:15 K2G4 032115Z AUTO 29006KT 10SM SCT048 25/15 A3007 RMK AO1
KIDI - Indiana/Stewart, Pennsylvania, USA
Distance from station: NE 56mi, 90km
Updated: Fri, Jul-03-2020 5:15pm EDT
Few Clouds
Few Clouds
 Wind from NW
Wind: NW 7 mph , 11 km/h, Gust: 16 mph , 26 km/h
Temperature: 90°F , 32°C
Heat Index: 91°F , 33°C
Dew Point: 63°F , 17°C
Humidity: 41%
Barometer: 29.99 inHg , 1015.6 hPa
Clouds: Few Clouds
Visibility: 10 miles , 16 km
Cloud details: Few Clouds 6000 ft
2020/07/03 21:15 KIDI 032115Z AUTO 31006G14KT 10SM FEW060 32/17 A2999 RMK A01
 
KJST - Johnstown, Pennsylvania, USA
Distance from station: ENE 60mi, 96km
Updated: Fri, Jul-03-2020 4:54pm EDT
Partly cloudy
Partly cloudy
 Wind from W
Wind: W 16 mph , 26 km/h, Gust: 20 mph , 31 km/h
Temperature: 88°F , 31°C
Dew Point: 57°F , 14°C
Humidity: 35%
Barometer: 30.00 inHg , 1015.9 hPa
Clouds: Partly cloudy
Visibility: 10 miles , 16 km
Cloud details: Partly cloudy 6000 ft
2020/07/03 20:54 KJST 032054Z AUTO 28014G17KT 10SM SCT060 31/14 A3000 RMK AO2 SLP141 T03060139 58012
KCBE - Cumberland Reg, Maryland, USA
Distance from station: ESE 72mi, 116km
Updated: Fri, Jul-03-2020 4:55pm EDT
Mostly cloudy
Mostly cloudy
 Wind from WNW
Wind: WNW 12 mph , 19 km/h, Gust: 21 mph , 33 km/h
Barometer: 29.94 inHg , 1013.9 hPa
Clouds: Mostly cloudy
Visibility: 10 miles , 16 km
Cloud details: Mostly cloudy 7500 ft
Mostly cloudy 9000 ft
2020/07/03 20:55 KCBE 032055Z AUTO 29010G18KT 10SM BKN075 BKN090 A2994 RMK AO2
 
KILG - Wilmington, Delaware, USA
Distance from station: ESE 234mi, 377km
Updated: Fri, Jul-03-2020 4:51pm EDT
Clear
Clear
 Wind from W
Wind: W 12 mph , 19 km/h
Temperature: 95°F , 35°C
Dew Point: 61°F , 16°C
Humidity: 32%
Barometer: 29.82 inHg , 1009.8 hPa
Clouds: Clear
Visibility: 10 miles , 16 km
2020/07/03 20:51 KILG 032051Z 28010KT 10SM CLR 35/16 A2982 RMK AO2 SLP096 T03500156 58012
KTUS - Tucson, Arizona, USA
Distance from station: WSW 1806mi, 3283km
Updated: Fri, Jul-03-2020 4:53pm EDT
Clear
Clear
 Wind from varies
Wind: varies 5 mph , 7 km/h
Temperature: 97°F , 36°C
Dew Point: 54°F , 12°C
Humidity: 23%
Barometer: 30.02 inHg , 1016.6 hPa
Clouds: Clear
Visibility: 10 miles , 16 km
2020/07/03 20:53 KTUS 032053Z VRB04KT 10SM CLR 36/12 A3002 RMK AO2 SLP114 T03610122 58020